sensor_id;sensor_type;location;lat;lon;timestamp;pressure;altitude;pressure_sealevel;temperature;humidity
71151;BME280;59071;42.138;24.768;2023-06-19T00:01:11;99475.91;;;23.16;57.48
71151;BME280;59071;42.138;24.768;2023-06-19T00:03:37;99471.13;;;23.08;58.26
71151;BME280;59071;42.138;24.768;2023-06-19T00:06:02;99478.59;;;23.16;58.32
71151;BME280;59071;42.138;24.768;2023-06-19T00:08:27;99481.47;;;23.44;57.92
71151;BME280;59071;42.138;24.768;2023-06-19T00:10:53;99470.94;;;23.56;56.99
71151;BME280;59071;42.138;24.768;2023-06-19T00:13:18;99475.22;;;23.25;57.55
71151;BME280;59071;42.138;24.768;2023-06-19T00:15:44;99481.59;;;23.15;58.25
71151;BME280;59071;42.138;24.768;2023-06-19T00:18:09;99476.50;;;22.89;58.69
71151;BME280;59071;42.138;24.768;2023-06-19T00:20:35;99481.22;;;22.59;59.78
71151;BME280;59071;42.138;24.768;2023-06-19T00:23:01;99482.22;;;22.88;58.95
71151;BME280;59071;42.138;24.768;2023-06-19T00:25:26;99489.94;;;22.99;58.30
71151;BME280;59071;42.138;24.768;2023-06-19T00:27:52;99482.41;;;22.96;58.97
71151;BME280;59071;42.138;24.768;2023-06-19T00:30:17;99489.84;;;23.10;57.97
71151;BME280;59071;42.138;24.768;2023-06-19T00:32:43;99494.31;;;23.19;57.52
71151;BME280;59071;42.138;24.768;2023-06-19T00:35:14;99490.41;;;23.26;58.13
71151;BME280;59071;42.138;24.768;2023-06-19T00:37:40;99484.25;;;23.39;57.37
71151;BME280;59071;42.138;24.768;2023-06-19T00:40:10;99489.19;;;23.18;57.29
71151;BME280;59071;42.138;24.768;2023-06-19T00:42:37;99487.88;;;23.15;58.00
71151;BME280;59071;42.138;24.768;2023-06-19T00:45:03;99493.88;;;23.31;57.05
71151;BME280;59071;42.138;24.768;2023-06-19T00:47:28;99489.13;;;22.99;57.57
71151;BME280;59071;42.138;24.768;2023-06-19T00:49:53;99491.03;;;22.55;59.17
71151;BME280;59071;42.138;24.768;2023-06-19T00:52:18;99486.72;;;22.97;57.75
71151;BME280;59071;42.138;24.768;2023-06-19T00:54:44;99479.72;;;22.48;59.13
71151;BME280;59071;42.138;24.768;2023-06-19T00:57:10;99486.06;;;22.62;59.04
71151;BME280;59071;42.138;24.768;2023-06-19T00:59:35;99480.81;;;22.71;58.64
71151;BME280;59071;42.138;24.768;2023-06-19T01:02:01;99482.38;;;22.77;58.85
71151;BME280;59071;42.138;24.768;2023-06-19T01:04:26;99485.56;;;22.60;58.71
71151;BME280;59071;42.138;24.768;2023-06-19T01:09:17;99491.50;;;22.62;58.71
71151;BME280;59071;42.138;24.768;2023-06-19T01:11:48;99483.50;;;22.71;58.41
71151;BME280;59071;42.138;24.768;2023-06-19T01:14:19;99475.97;;;22.68;58.05
71151;BME280;59071;42.138;24.768;2023-06-19T01:16:46;99486.34;;;22.85;57.49
71151;BME280;59071;42.138;24.768;2023-06-19T01:19:15;99479.69;;;22.96;57.06
71151;BME280;59071;42.138;24.768;2023-06-19T01:21:40;99475.97;;;23.11;57.12
71151;BME280;59071;42.138;24.768;2023-06-19T01:24:06;99475.78;;;22.83;56.88
71151;BME280;59071;42.138;24.768;2023-06-19T01:26:31;99474.38;;;22.43;58.42
71151;BME280;59071;42.138;24.768;2023-06-19T01:28:57;99472.59;;;22.33;58.51
71151;BME280;59071;42.138;24.768;2023-06-19T01:31:36;99474.25;;;22.96;56.64
71151;BME280;59071;42.138;24.768;2023-06-19T01:34:03;99481.06;;;22.94;57.46
71151;BME280;59071;42.138;24.768;2023-06-19T01:36:29;99483.53;;;22.90;58.06
71151;BME280;59071;42.138;24.768;2023-06-19T01:38:54;99475.91;;;22.92;56.96
71151;BME280;59071;42.138;24.768;2023-06-19T01:41:22;99470.66;;;23.01;56.50
71151;BME280;59071;42.138;24.768;2023-06-19T01:43:49;99472.00;;;23.03;57.44
71151;BME280;59071;42.138;24.768;2023-06-19T01:46:14;99473.41;;;22.77;56.80
71151;BME280;59071;42.138;24.768;2023-06-19T01:48:40;99471.78;;;23.00;56.63
71151;BME280;59071;42.138;24.768;2023-06-19T01:51:05;99472.97;;;22.70;57.50
71151;BME280;59071;42.138;24.768;2023-06-19T01:53:31;99467.25;;;22.71;57.25
71151;BME280;59071;42.138;24.768;2023-06-19T01:55:56;99467.78;;;22.49;57.38
71151;BME280;59071;42.138;24.768;2023-06-19T01:58:22;99472.50;;;22.87;56.94
71151;BME280;59071;42.138;24.768;2023-06-19T02:00:47;99474.28;;;22.72;56.78
71151;BME280;59071;42.138;24.768;2023-06-19T02:03:13;99475.88;;;22.54;57.44
71151;BME280;59071;42.138;24.768;2023-06-19T02:05:38;99477.84;;;21.90;59.24
71151;BME280;59071;42.138;24.768;2023-06-19T02:08:04;99472.88;;;22.32;57.75
71151;BME280;59071;42.138;24.768;2023-06-19T02:10:30;99476.38;;;22.56;57.34
71151;BME280;59071;42.138;24.768;2023-06-19T02:12:55;99472.97;;;22.70;56.62
71151;BME280;59071;42.138;24.768;2023-06-19T02:15:21;99465.94;;;22.44;57.89
71151;BME280;59071;42.138;24.768;2023-06-19T02:17:46;99475.50;;;22.61;57.21
71151;BME280;59071;42.138;24.768;2023-06-19T02:20:11;99485.22;;;22.86;56.62
71151;BME280;59071;42.138;24.768;2023-06-19T02:22:37;99481.56;;;22.96;55.94
71151;BME280;59071;42.138;24.768;2023-06-19T02:25:03;99483.47;;;22.52;56.40
71151;BME280;59071;42.138;24.768;2023-06-19T02:27:28;99491.34;;;22.97;55.36
71151;BME280;59071;42.138;24.768;2023-06-19T02:29:54;99487.00;;;22.96;55.15
71151;BME280;59071;42.138;24.768;2023-06-19T02:32:19;99488.09;;;22.52;56.62
71151;BME280;59071;42.138;24.768;2023-06-19T02:34:44;99492.88;;;22.36;56.89
71151;BME280;59071;42.138;24.768;2023-06-19T02:37:10;99486.97;;;22.77;55.92
71151;BME280;59071;42.138;24.768;2023-06-19T02:39:35;99484.78;;;22.79;55.71
71151;BME280;59071;42.138;24.768;2023-06-19T02:42:00;99487.06;;;22.72;57.44
71151;BME280;59071;42.138;24.768;2023-06-19T02:44:25;99491.03;;;22.79;55.61
71151;BME280;59071;42.138;24.768;2023-06-19T02:46:51;99494.53;;;22.56;56.03
71151;BME280;59071;42.138;24.768;2023-06-19T02:49:16;99492.13;;;22.30;57.54
71151;BME280;59071;42.138;24.768;2023-06-19T02:51:41;99486.16;;;22.33;56.83
71151;BME280;59071;42.138;24.768;2023-06-19T02:54:07;99490.34;;;22.15;56.94
71151;BME280;59071;42.138;24.768;2023-06-19T02:56:32;99490.41;;;22.39;56.90
71151;BME280;59071;42.138;24.768;2023-06-19T02:58:57;99488.25;;;22.36;56.45
71151;BME280;59071;42.138;24.768;2023-06-19T03:01:23;99494.53;;;22.80;55.87
71151;BME280;59071;42.138;24.768;2023-06-19T03:03:48;99498.09;;;22.27;56.29
71151;BME280;59071;42.138;24.768;2023-06-19T03:06:13;99492.47;;;22.48;56.58
71151;BME280;59071;42.138;24.768;2023-06-19T03:08:39;99490.97;;;22.36;56.41
71151;BME280;59071;42.138;24.768;2023-06-19T03:11:04;99496.16;;;22.57;56.13
71151;BME280;59071;42.138;24.768;2023-06-19T03:16:13;99494.31;;;22.52;56.42
71151;BME280;59071;42.138;24.768;2023-06-19T03:18:45;99491.72;;;22.66;56.00
71151;BME280;59071;42.138;24.768;2023-06-19T03:21:11;99489.38;;;22.35;56.74
71151;BME280;59071;42.138;24.768;2023-06-19T03:23:36;99494.47;;;22.37;56.91
71151;BME280;59071;42.138;24.768;2023-06-19T03:26:02;99495.63;;;22.31;57.49
71151;BME280;59071;42.138;24.768;2023-06-19T03:28:27;99501.44;;;22.19;57.66
71151;BME280;59071;42.138;24.768;2023-06-19T03:30:53;99500.31;;;22.20;57.58
71151;BME280;59071;42.138;24.768;2023-06-19T03:33:19;99509.38;;;22.39;57.30
71151;BME280;59071;42.138;24.768;2023-06-19T03:35:44;99504.38;;;22.22;58.04
71151;BME280;59071;42.138;24.768;2023-06-19T03:38:09;99497.16;;;22.13;58.07
71151;BME280;59071;42.138;24.768;2023-06-19T03:40:34;99498.81;;;22.38;57.42
71151;BME280;59071;42.138;24.768;2023-06-19T03:43:00;99507.00;;;22.33;57.83
71151;BME280;59071;42.138;24.768;2023-06-19T03:45:25;99501.94;;;22.26;57.62
71151;BME280;59071;42.138;24.768;2023-06-19T03:47:50;99507.16;;;22.65;56.80
71151;BME280;59071;42.138;24.768;2023-06-19T03:50:16;99514.34;;;23.23;55.40
71151;BME280;59071;42.138;24.768;2023-06-19T03:52:41;99504.69;;;22.93;55.73
71151;BME280;59071;42.138;24.768;2023-06-19T03:55:07;99516.84;;;23.39;54.89
71151;BME280;59071;42.138;24.768;2023-06-19T03:57:32;99507.78;;;23.43;54.75
71151;BME280;59071;42.138;24.768;2023-06-19T03:59:57;99508.53;;;23.49;54.45
71151;BME280;59071;42.138;24.768;2023-06-19T04:02:23;99494.28;;;23.57;53.98
71151;BME280;59071;42.138;24.768;2023-06-19T04:04:48;99492.75;;;24.03;52.67
71151;BME280;59071;42.138;24.768;2023-06-19T04:07:13;99490.25;;;24.34;51.95
71151;BME280;59071;42.138;24.768;2023-06-19T04:09:39;99486.47;;;24.63;51.37
71151;BME280;59071;42.138;24.768;2023-06-19T04:12:04;99497.03;;;24.92;50.14
71151;BME280;59071;42.138;24.768;2023-06-19T04:14:29;99489.09;;;24.54;51.24
71151;BME280;59071;42.138;24.768;2023-06-19T04:16:55;99489.50;;;24.75;50.98
71151;BME280;59071;42.138;24.768;2023-06-19T04:19:20;99492.47;;;25.02;50.04
71151;BME280;59071;42.138;24.768;2023-06-19T04:21:45;99483.84;;;25.59;48.89
71151;BME280;59071;42.138;24.768;2023-06-19T04:24:10;99486.44;;;25.41;49.11
71151;BME280;59071;42.138;24.768;2023-06-19T04:26:36;99483.53;;;26.05;47.74
71151;BME280;59071;42.138;24.768;2023-06-19T04:29:04;99491.41;;;26.16;47.03
71151;BME280;59071;42.138;24.768;2023-06-19T04:31:31;99490.53;;;25.98;47.20
71151;BME280;59071;42.138;24.768;2023-06-19T04:33:56;99488.94;;;26.37;46.67
71151;BME280;59071;42.138;24.768;2023-06-19T04:36:22;99494.56;;;26.40;46.36
71151;BME280;59071;42.138;24.768;2023-06-19T04:38:48;99491.66;;;26.28;46.68
71151;BME280;59071;42.138;24.768;2023-06-19T04:41:13;99493.63;;;26.85;45.76
71151;BME280;59071;42.138;24.768;2023-06-19T04:43:38;99494.28;;;26.90;45.17
71151;BME280;59071;42.138;24.768;2023-06-19T04:46:06;99496.56;;;27.32;44.18
71151;BME280;59071;42.138;24.768;2023-06-19T04:48:32;99499.78;;;27.60;43.91
71151;BME280;59071;42.138;24.768;2023-06-19T04:50:57;99500.91;;;27.77;43.24
71151;BME280;59071;42.138;24.768;2023-06-19T04:53:22;99498.63;;;27.96;43.00
71151;BME280;59071;42.138;24.768;2023-06-19T04:55:48;99495.50;;;28.24;42.08
71151;BME280;59071;42.138;24.768;2023-06-19T04:58:14;99499.56;;;28.47;41.99
71151;BME280;59071;42.138;24.768;2023-06-19T05:00:40;99487.06;;;28.97;40.51
71151;BME280;59071;42.138;24.768;2023-06-19T05:03:05;99498.34;;;29.26;39.96
71151;BME280;59071;42.138;24.768;2023-06-19T05:05:30;99501.16;;;29.71;39.31
71151;BME280;59071;42.138;24.768;2023-06-19T05:07:55;99498.63;;;29.33;39.57
71151;BME280;59071;42.138;24.768;2023-06-19T05:10:21;99496.31;;;29.77;38.89
71151;BME280;59071;42.138;24.768;2023-06-19T05:12:46;99492.16;;;29.71;38.58
71151;BME280;59071;42.138;24.768;2023-06-19T05:15:11;99496.41;;;29.26;39.58
71151;BME280;59071;42.138;24.768;2023-06-19T05:17:37;99505.53;;;29.72;39.32
71151;BME280;59071;42.138;24.768;2023-06-19T05:20:04;99498.72;;;29.78;38.77
71151;BME280;59071;42.138;24.768;2023-06-19T05:22:30;99508.75;;;30.20;38.11
71151;BME280;59071;42.138;24.768;2023-06-19T05:24:56;99503.69;;;29.43;38.53
71151;BME280;59071;42.138;24.768;2023-06-19T05:27:21;99502.56;;;30.11;37.82
71151;BME280;59071;42.138;24.768;2023-06-19T05:29:47;99501.50;;;29.70;38.38
71151;BME280;59071;42.138;24.768;2023-06-19T05:32:12;99502.59;;;29.35;38.52
71151;BME280;59071;42.138;24.768;2023-06-19T05:34:37;99508.78;;;28.81;39.91
71151;BME280;59071;42.138;24.768;2023-06-19T05:37:03;99499.59;;;29.28;38.90
71151;BME280;59071;42.138;24.768;2023-06-19T05:39:28;99506.97;;;29.91;37.74
71151;BME280;59071;42.138;24.768;2023-06-19T05:41:54;99503.13;;;30.29;37.42
71151;BME280;59071;42.138;24.768;2023-06-19T05:44:19;99501.47;;;30.36;37.26
71151;BME280;59071;42.138;24.768;2023-06-19T05:46:45;99501.94;;;30.51;37.12
71151;BME280;59071;42.138;24.768;2023-06-19T05:49:10;99504.41;;;30.31;37.29
71151;BME280;59071;42.138;24.768;2023-06-19T05:51:35;99513.94;;;30.00;37.52
71151;BME280;59071;42.138;24.768;2023-06-19T05:54:00;99503.44;;;29.69;38.19
71151;BME280;59071;42.138;24.768;2023-06-19T05:56:32;99506.81;;;29.75;38.04
71151;BME280;59071;42.138;24.768;2023-06-19T05:59:01;99514.50;;;30.89;36.48
71151;BME280;59071;42.138;24.768;2023-06-19T06:01:26;99508.22;;;31.41;35.34
71151;BME280;59071;42.138;24.768;2023-06-19T06:03:55;99512.09;;;31.52;35.45
71151;BME280;59071;42.138;24.768;2023-06-19T06:06:20;99507.91;;;31.87;34.49
71151;BME280;59071;42.138;24.768;2023-06-19T06:08:45;99512.13;;;32.76;33.93
71151;BME280;59071;42.138;24.768;2023-06-19T06:11:11;99522.03;;;32.61;33.71
71151;BME280;59071;42.138;24.768;2023-06-19T06:13:36;99509.22;;;33.04;33.33
71151;BME280;59071;42.138;24.768;2023-06-19T06:16:01;99504.84;;;33.58;32.61
71151;BME280;59071;42.138;24.768;2023-06-19T06:18:27;99505.00;;;33.26;32.33
71151;BME280;59071;42.138;24.768;2023-06-19T06:20:52;99507.00;;;33.10;32.55
71151;BME280;59071;42.138;24.768;2023-06-19T06:23:18;99511.53;;;31.75;33.52
71151;BME280;59071;42.138;24.768;2023-06-19T06:25:43;99506.94;;;31.51;33.85
71151;BME280;59071;42.138;24.768;2023-06-19T06:28:10;99508.25;;;32.29;33.24
71151;BME280;59071;42.138;24.768;2023-06-19T06:30:36;99506.53;;;32.72;32.75
71151;BME280;59071;42.138;24.768;2023-06-19T06:33:01;99507.38;;;32.25;33.21
71151;BME280;59071;42.138;24.768;2023-06-19T06:35:26;99503.38;;;32.39;33.09
71151;BME280;59071;42.138;24.768;2023-06-19T06:37:52;99510.09;;;33.24;32.22
71151;BME280;59071;42.138;24.768;2023-06-19T06:40:17;99511.03;;;32.29;33.16
71151;BME280;59071;42.138;24.768;2023-06-19T06:42:42;99522.63;;;32.70;32.29
71151;BME280;59071;42.138;24.768;2023-06-19T06:45:08;99508.88;;;33.06;32.12
71151;BME280;59071;42.138;24.768;2023-06-19T06:47:36;99504.50;;;33.40;31.42
71151;BME280;59071;42.138;24.768;2023-06-19T06:50:02;99508.09;;;33.05;31.73
71151;BME280;59071;42.138;24.768;2023-06-19T06:52:27;99515.28;;;32.43;32.66
71151;BME280;59071;42.138;24.768;2023-06-19T06:54:53;99510.66;;;32.63;32.22
71151;BME280;59071;42.138;24.768;2023-06-19T06:57:18;99516.53;;;32.29;32.83
71151;BME280;59071;42.138;24.768;2023-06-19T06:59:43;99511.59;;;32.86;32.08
71151;BME280;59071;42.138;24.768;2023-06-19T07:02:09;99518.19;;;32.18;32.77
71151;BME280;59071;42.138;24.768;2023-06-19T07:04:34;99527.69;;;33.20;31.49
71151;BME280;59071;42.138;24.768;2023-06-19T07:06:59;99519.25;;;32.45;32.69
71151;BME280;59071;42.138;24.768;2023-06-19T07:09:25;99517.56;;;32.72;32.08
71151;BME280;59071;42.138;24.768;2023-06-19T07:11:50;99525.75;;;32.69;32.30
71151;BME280;59071;42.138;24.768;2023-06-19T07:14:15;99523.16;;;32.76;32.37
71151;BME280;59071;42.138;24.768;2023-06-19T07:16:43;99524.69;;;32.73;32.36
71151;BME280;59071;42.138;24.768;2023-06-19T07:19:08;99528.50;;;33.20;31.99
71151;BME280;59071;42.138;24.768;2023-06-19T07:21:34;99525.25;;;33.34;31.01
71151;BME280;59071;42.138;24.768;2023-06-19T07:23:59;99529.97;;;33.53;31.10
71151;BME280;59071;42.138;24.768;2023-06-19T07:26:24;99524.59;;;32.54;31.20
71151;BME280;59071;42.138;24.768;2023-06-19T07:28:50;99527.50;;;31.69;32.84
71151;BME280;59071;42.138;24.768;2023-06-19T07:31:15;99530.03;;;32.66;32.35
71151;BME280;59071;42.138;24.768;2023-06-19T07:33:41;99528.09;;;33.38;31.06
71151;BME280;59071;42.138;24.768;2023-06-19T07:36:06;99530.53;;;33.23;31.14
71151;BME280;59071;42.138;24.768;2023-06-19T07:38:31;99517.91;;;33.22;30.69
71151;BME280;59071;42.138;24.768;2023-06-19T07:40:57;99523.13;;;33.27;31.59
71151;BME280;59071;42.138;24.768;2023-06-19T07:43:22;99520.59;;;33.77;30.49
71151;BME280;59071;42.138;24.768;2023-06-19T07:45:48;99526.91;;;33.03;31.19
71151;BME280;59071;42.138;24.768;2023-06-19T07:48:14;99523.28;;;33.35;30.38
71151;BME280;59071;42.138;24.768;2023-06-19T07:50:39;99523.13;;;33.27;30.51
71151;BME280;59071;42.138;24.768;2023-06-19T07:53:04;99521.81;;;33.60;30.08
71151;BME280;59071;42.138;24.768;2023-06-19T07:55:30;99525.50;;;32.93;30.54
71151;BME280;59071;42.138;24.768;2023-06-19T07:57:55;99524.59;;;33.41;30.61
71151;BME280;59071;42.138;24.768;2023-06-19T08:00:22;99532.44;;;33.39;30.76
71151;BME280;59071;42.138;24.768;2023-06-19T08:02:47;99521.25;;;33.90;28.97
71151;BME280;59071;42.138;24.768;2023-06-19T08:05:13;99524.06;;;33.94;28.69
71151;BME280;59071;42.138;24.768;2023-06-19T08:07:38;99527.88;;;34.08;29.13
71151;BME280;59071;42.138;24.768;2023-06-19T08:10:04;99518.19;;;33.56;29.31
71151;BME280;59071;42.138;24.768;2023-06-19T08:12:29;99525.56;;;34.57;28.47
71151;BME280;59071;42.138;24.768;2023-06-19T08:14:55;99516.94;;;35.15;28.10
71151;BME280;59071;42.138;24.768;2023-06-19T08:17:20;99528.06;;;35.49;27.20
71151;BME280;59071;42.138;24.768;2023-06-19T08:19:45;99524.88;;;34.63;28.24
71151;BME280;59071;42.138;24.768;2023-06-19T08:22:11;99528.97;;;34.23;28.71
71151;BME280;59071;42.138;24.768;2023-06-19T08:24:36;99526.16;;;34.20;28.84
71151;BME280;59071;42.138;24.768;2023-06-19T08:27:04;99522.38;;;34.55;28.02
71151;BME280;59071;42.138;24.768;2023-06-19T08:29:29;99519.09;;;34.99;28.12
71151;BME280;59071;42.138;24.768;2023-06-19T08:31:54;99516.69;;;35.58;27.51
71151;BME280;59071;42.138;24.768;2023-06-19T08:34:19;99519.97;;;35.67;27.17
71151;BME280;59071;42.138;24.768;2023-06-19T08:36:45;99524.88;;;35.81;27.88
71151;BME280;59071;42.138;24.768;2023-06-19T08:39:10;99530.38;;;34.37;28.77
71151;BME280;59071;42.138;24.768;2023-06-19T08:41:36;99534.53;;;34.27;28.71
71151;BME280;59071;42.138;24.768;2023-06-19T08:44:02;99523.22;;;34.13;28.51
71151;BME280;59071;42.138;24.768;2023-06-19T08:46:28;99520.47;;;34.13;28.63
71151;BME280;59071;42.138;24.768;2023-06-19T08:48:54;99527.44;;;34.26;27.71
71151;BME280;59071;42.138;24.768;2023-06-19T08:51:19;99524.84;;;34.87;28.49
71151;BME280;59071;42.138;24.768;2023-06-19T08:53:46;99534.75;;;33.17;28.90
71151;BME280;59071;42.138;24.768;2023-06-19T08:56:11;99521.13;;;33.63;28.44
71151;BME280;59071;42.138;24.768;2023-06-19T08:58:37;99518.56;;;34.40;28.02
71151;BME280;59071;42.138;24.768;2023-06-19T09:01:03;99525.81;;;34.71;27.21
71151;BME280;59071;42.138;24.768;2023-06-19T09:03:28;99524.94;;;34.44;28.29
71151;BME280;59071;42.138;24.768;2023-06-19T09:05:54;99519.56;;;35.04;26.43
71151;BME280;59071;42.138;24.768;2023-06-19T09:08:19;99519.09;;;34.72;26.90
71151;BME280;59071;42.138;24.768;2023-06-19T09:11:01;99510.63;;;34.84;27.16
71151;BME280;59071;42.138;24.768;2023-06-19T09:13:27;99520.94;;;34.64;27.60
71151;BME280;59071;42.138;24.768;2023-06-19T09:18:24;99512.81;;;35.02;27.03
71151;BME280;59071;42.138;24.768;2023-06-19T09:20:52;99511.94;;;35.55;26.71
71151;BME280;59071;42.138;24.768;2023-06-19T09:23:17;99508.09;;;35.33;26.96
71151;BME280;59071;42.138;24.768;2023-06-19T09:25:44;99507.41;;;34.56;27.54
71151;BME280;59071;42.138;24.768;2023-06-19T09:28:16;99500.47;;;34.42;28.08
71151;BME280;59071;42.138;24.768;2023-06-19T09:30:50;99499.88;;;35.10;27.22
71151;BME280;59071;42.138;24.768;2023-06-19T09:33:16;99491.41;;;35.26;27.06
71151;BME280;59071;42.138;24.768;2023-06-19T09:35:41;99499.44;;;34.77;26.68
71151;BME280;59071;42.138;24.768;2023-06-19T09:38:07;99489.81;;;34.94;26.24
71151;BME280;59071;42.138;24.768;2023-06-19T09:40:33;99497.72;;;34.42;26.97
71151;BME280;59071;42.138;24.768;2023-06-19T09:42:58;99492.59;;;35.24;26.67
71151;BME280;59071;42.138;24.768;2023-06-19T09:45:24;99492.72;;;35.69;26.50
71151;BME280;59071;42.138;24.768;2023-06-19T09:47:52;99489.38;;;35.19;25.88
71151;BME280;59071;42.138;24.768;2023-06-19T09:50:18;99484.34;;;35.28;25.79
71151;BME280;59071;42.138;24.768;2023-06-19T09:52:47;99486.00;;;35.06;25.58
71151;BME280;59071;42.138;24.768;2023-06-19T09:55:16;99483.94;;;34.99;25.69
71151;BME280;59071;42.138;24.768;2023-06-19T09:57:45;99478.00;;;35.28;25.83
71151;BME280;59071;42.138;24.768;2023-06-19T10:00:10;99478.44;;;35.30;26.48
71151;BME280;59071;42.138;24.768;2023-06-19T10:02:44;99475.25;;;34.71;26.97
71151;BME280;59071;42.138;24.768;2023-06-19T10:05:10;99471.56;;;34.90;26.83
71151;BME280;59071;42.138;24.768;2023-06-19T10:07:38;99471.91;;;35.15;26.87
71151;BME280;59071;42.138;24.768;2023-06-19T10:10:07;99467.91;;;34.82;26.07
71151;BME280;59071;42.138;24.768;2023-06-19T10:12:42;99472.28;;;35.81;25.72
71151;BME280;59071;42.138;24.768;2023-06-19T10:15:12;99467.53;;;35.78;25.93
71151;BME280;59071;42.138;24.768;2023-06-19T10:17:37;99462.72;;;35.71;26.00
71151;BME280;59071;42.138;24.768;2023-06-19T10:20:03;99467.81;;;35.35;26.84
71151;BME280;59071;42.138;24.768;2023-06-19T10:22:32;99455.47;;;36.00;25.14
71151;BME280;59071;42.138;24.768;2023-06-19T10:24:57;99463.00;;;36.48;24.26
71151;BME280;59071;42.138;24.768;2023-06-19T10:27:23;99465.84;;;36.11;25.83
71151;BME280;59071;42.138;24.768;2023-06-19T10:29:52;99467.28;;;36.42;24.74
71151;BME280;59071;42.138;24.768;2023-06-19T10:32:18;99457.00;;;35.94;25.21
71151;BME280;59071;42.138;24.768;2023-06-19T10:34:47;99449.31;;;35.77;25.23
71151;BME280;59071;42.138;24.768;2023-06-19T10:37:14;99452.13;;;36.22;24.07
71151;BME280;59071;42.138;24.768;2023-06-19T10:39:39;99450.50;;;36.20;24.67
71151;BME280;59071;42.138;24.768;2023-06-19T10:42:06;99451.38;;;35.84;24.54
71151;BME280;59071;42.138;24.768;2023-06-19T10:44:32;99440.84;;;36.04;25.00
71151;BME280;59071;42.138;24.768;2023-06-19T10:46:57;99452.72;;;36.00;24.82
71151;BME280;59071;42.138;24.768;2023-06-19T10:49:22;99437.97;;;37.04;23.86
71151;BME280;59071;42.138;24.768;2023-06-19T10:51:48;99434.63;;;37.86;23.13
71151;BME280;59071;42.138;24.768;2023-06-19T10:54:13;99433.03;;;37.92;23.06
71151;BME280;59071;42.138;24.768;2023-06-19T10:56:39;99432.22;;;38.60;22.77
71151;BME280;59071;42.138;24.768;2023-06-19T10:59:06;99426.56;;;38.88;21.39
71151;BME280;59071;42.138;24.768;2023-06-19T11:01:35;99425.78;;;37.23;23.18
71151;BME280;59071;42.138;24.768;2023-06-19T11:04:07;99428.06;;;36.36;24.32
71151;BME280;59071;42.138;24.768;2023-06-19T11:06:33;99423.47;;;36.58;24.21
71151;BME280;59071;42.138;24.768;2023-06-19T11:08:59;99421.19;;;36.71;25.30
71151;BME280;59071;42.138;24.768;2023-06-19T11:11:38;99419.53;;;37.62;24.41
71151;BME280;59071;42.138;24.768;2023-06-19T11:14:04;99413.13;;;37.29;23.73
71151;BME280;59071;42.138;24.768;2023-06-19T11:16:29;99411.63;;;37.82;23.87
71151;BME280;59071;42.138;24.768;2023-06-19T11:18:58;99415.59;;;37.88;24.33
71151;BME280;59071;42.138;24.768;2023-06-19T11:21:30;99416.41;;;37.78;23.91
71151;BME280;59071;42.138;24.768;2023-06-19T11:23:57;99409.63;;;38.29;22.19
71151;BME280;59071;42.138;24.768;2023-06-19T11:26:24;99412.81;;;37.73;23.25
71151;BME280;59071;42.138;24.768;2023-06-19T11:28:49;99404.50;;;38.27;22.18
71151;BME280;59071;42.138;24.768;2023-06-19T11:31:14;99408.38;;;38.62;22.86
71151;BME280;59071;42.138;24.768;2023-06-19T11:33:40;99404.81;;;38.65;22.75
71151;BME280;59071;42.138;24.768;2023-06-19T11:36:05;99406.03;;;38.43;22.98
71151;BME280;59071;42.138;24.768;2023-06-19T11:38:32;99400.47;;;38.53;22.58
71151;BME280;59071;42.138;24.768;2023-06-19T11:40:59;99400.47;;;38.43;21.01
71151;BME280;59071;42.138;24.768;2023-06-19T11:43:28;99407.91;;;37.13;22.41
71151;BME280;59071;42.138;24.768;2023-06-19T11:46:07;99401.63;;;37.41;22.65
71151;BME280;59071;42.138;24.768;2023-06-19T11:48:35;99407.44;;;37.00;22.35
71151;BME280;59071;42.138;24.768;2023-06-19T11:51:01;99393.75;;;37.75;22.19
71151;BME280;59071;42.138;24.768;2023-06-19T11:53:26;99398.53;;;37.97;22.40
71151;BME280;59071;42.138;24.768;2023-06-19T11:55:51;99380.56;;;38.69;21.19
71151;BME280;59071;42.138;24.768;2023-06-19T11:58:17;99383.22;;;39.09;21.34
71151;BME280;59071;42.138;24.768;2023-06-19T12:00:44;99391.75;;;39.40;22.09
71151;BME280;59071;42.138;24.768;2023-06-19T12:03:10;99387.84;;;37.99;22.31
71151;BME280;59071;42.138;24.768;2023-06-19T12:05:35;99380.22;;;37.31;22.42
71151;BME280;59071;42.138;24.768;2023-06-19T12:08:01;99375.50;;;37.56;22.42
71151;BME280;59071;42.138;24.768;2023-06-19T12:10:27;99375.94;;;37.69;22.86
71151;BME280;59071;42.138;24.768;2023-06-19T12:12:53;99375.94;;;38.09;22.41
71151;BME280;59071;42.138;24.768;2023-06-19T12:15:18;99370.78;;;37.79;22.62
71151;BME280;59071;42.138;24.768;2023-06-19T12:17:43;99375.84;;;37.19;23.71
71151;BME280;59071;42.138;24.768;2023-06-19T12:20:10;99370.75;;;35.89;24.22
71151;BME280;59071;42.138;24.768;2023-06-19T12:22:35;99354.38;;;36.21;24.61
71151;BME280;59071;42.138;24.768;2023-06-19T12:25:01;99365.75;;;36.71;24.36
71151;BME280;59071;42.138;24.768;2023-06-19T12:27:26;99364.63;;;36.87;24.03
71151;BME280;59071;42.138;24.768;2023-06-19T12:29:51;99353.28;;;37.60;23.30
71151;BME280;59071;42.138;24.768;2023-06-19T12:32:17;99364.25;;;36.92;23.06
71151;BME280;59071;42.138;24.768;2023-06-19T12:34:42;99346.56;;;37.50;22.27
71151;BME280;59071;42.138;24.768;2023-06-19T12:37:12;99350.13;;;37.47;21.81
71151;BME280;59071;42.138;24.768;2023-06-19T12:39:38;99347.31;;;37.29;22.37
71151;BME280;59071;42.138;24.768;2023-06-19T12:42:03;99355.25;;;37.27;22.62
71151;BME280;59071;42.138;24.768;2023-06-19T12:44:28;99355.28;;;37.56;22.44
71151;BME280;59071;42.138;24.768;2023-06-19T12:46:54;99340.22;;;37.50;22.41
71151;BME280;59071;42.138;24.768;2023-06-19T12:49:19;99343.28;;;36.98;22.22
71151;BME280;59071;42.138;24.768;2023-06-19T12:51:44;99343.59;;;36.68;23.00